createdAt,value
2019-06-01T00:02:12.000Z,31.75
2019-06-01T00:04:45.216Z,31.77
2019-06-01T00:07:18.275Z,26.87
2019-06-01T00:09:50.143Z,34.33
2019-06-01T00:12:22.511Z,30.37
2019-06-01T00:14:54.786Z,32.95
2019-06-01T00:17:27.164Z,37.78
2019-06-01T00:19:59.255Z,29.20
2019-06-01T00:22:31.828Z,20.60
2019-06-01T00:25:05.122Z,22.82
2019-06-01T00:27:37.644Z,24.82
2019-06-01T00:30:09.971Z,25.95
2019-06-01T00:32:43.003Z,25.77
2019-06-01T00:35:15.851Z,22.80
2019-06-01T00:37:48.064Z,20.40
2019-06-01T00:40:20.309Z,28.95
2019-06-01T00:42:52.543Z,18.12
2019-06-01T00:45:24.431Z,20.15
2019-06-01T00:47:56.601Z,19.50
2019-06-01T00:50:28.897Z,16.15
2019-06-01T00:53:01.250Z,13.30
2019-06-01T00:55:33.524Z,16.00
2019-06-01T00:58:06.006Z,12.43
2019-06-01T01:00:43.592Z,12.35
2019-06-01T01:03:12.298Z,14.13
2019-06-01T01:05:44.723Z,13.40
2019-06-01T01:08:16.837Z,15.40
2019-06-01T01:10:49.214Z,13.85
2019-06-01T01:13:23.196Z,23.05
2019-06-01T01:15:55.579Z,26.45
2019-06-01T01:18:27.569Z,33.15
2019-06-01T01:20:59.744Z,27.40
2019-06-01T01:23:32.221Z,21.85
2019-06-01T01:26:04.881Z,34.05
2019-06-01T01:28:36.974Z,42.48
2019-06-01T01:31:13.802Z,36.98
2019-06-01T01:33:43.372Z,58.90
2019-06-01T01:36:15.433Z,50.28
2019-06-01T01:38:48.292Z,34.95
2019-06-01T01:41:20.593Z,48.58
2019-06-01T01:43:53.069Z,41.85
2019-06-01T01:46:25.132Z,42.05
2019-06-01T01:48:58.194Z,51.10
2019-06-01T01:51:30.401Z,55.70
2019-06-01T01:54:04.510Z,50.75
2019-06-01T01:56:36.581Z,47.83
2019-06-01T01:59:08.954Z,45.80
2019-06-01T02:01:40.914Z,41.88
2019-06-01T02:04:13.295Z,44.63
2019-06-01T02:06:45.671Z,42.70
2019-06-01T02:09:18.131Z,40.08
2019-06-01T02:11:51.405Z,34.83
2019-06-01T02:14:24.336Z,37.88
2019-06-01T02:16:56.402Z,34.88
2019-06-01T02:19:28.471Z,40.10
2019-06-01T02:22:01.291Z,38.15
2019-06-01T02:24:33.435Z,32.65
2019-06-01T02:27:05.602Z,35.90
2019-06-01T02:29:37.487Z,34.75
2019-06-01T02:32:09.942Z,38.20
2019-06-01T02:34:42.118Z,40.35
2019-06-01T02:37:14.488Z,43.00
2019-06-01T02:39:46.859Z,40.28
2019-06-01T02:42:19.336Z,39.05
2019-06-01T02:44:52.751Z,38.70
2019-06-01T02:47:25.542Z,30.97
2019-06-01T02:49:59.376Z,41.63
2019-06-01T02:52:31.509Z,34.75
2019-06-01T02:55:06.518Z,37.98
2019-06-01T02:57:38.818Z,30.80
2019-06-01T03:00:10.894Z,30.70
2019-06-01T03:02:43.062Z,35.75
2019-06-01T03:05:15.028Z,29.52
2019-06-01T03:07:47.817Z,27.80
2019-06-01T03:10:19.987Z,29.15
2019-06-01T03:12:52.559Z,32.08
2019-06-01T03:15:24.430Z,29.50
2019-06-01T03:17:56.908Z,28.12
2019-06-01T03:20:28.871Z,33.28
2019-06-01T03:23:01.766Z,24.70
2019-06-01T03:25:33.831Z,29.45
2019-06-01T03:28:06.226Z,24.95
2019-06-01T03:30:45.558Z,29.63
2019-06-01T03:33:17.135Z,38.53
2019-06-01T03:35:49.885Z,28.85
2019-06-01T03:38:22.065Z,34.08
2019-06-01T03:40:54.641Z,33.63
2019-06-01T03:43:26.503Z,29.72
2019-06-01T03:45:58.777Z,28.27
2019-06-01T03:48:30.702Z,30.08
2019-06-01T03:51:03.613Z,30.02
2019-06-01T03:53:35.698Z,23.62
2019-06-01T03:56:09.045Z,29.02
2019-06-01T03:58:41.069Z,34.15
2019-06-01T04:01:13.237Z,32.60
2019-06-01T04:03:45.507Z,29.63
2019-06-01T04:06:17.886Z,26.77
2019-06-01T04:08:49.964Z,23.02
2019-06-01T04:11:22.247Z,28.27
2019-06-01T04:13:54.434Z,22.10
2019-06-01T04:16:26.592Z,26.65
2019-06-01T04:18:58.531Z,28.73
2019-06-01T04:21:30.910Z,28.75
2019-06-01T04:24:04.014Z,22.73
2019-06-01T04:26:36.205Z,29.48
2019-06-01T04:29:08.351Z,21.33
2019-06-01T04:31:40.239Z,26.87
2019-06-01T04:34:13.394Z,25.62
2019-06-01T04:36:45.575Z,31.48
2019-06-01T04:39:17.737Z,23.98
2019-06-01T04:41:50.114Z,25.48
2019-06-01T04:44:22.283Z,20.08
2019-06-01T04:46:54.455Z,25.60
2019-06-01T04:49:26.523Z,25.23
2019-06-01T04:51:58.696Z,25.25
2019-06-01T04:54:30.760Z,22.80
2019-06-01T04:57:03.037Z,29.30
2019-06-01T04:59:37.768Z,24.18
2019-06-01T05:04:43.667Z,29.92
2019-06-01T05:07:15.916Z,22.50
2019-06-01T05:09:48.298Z,23.18
2019-06-01T05:12:20.159Z,24.23
2019-06-01T05:14:52.534Z,21.40
2019-06-01T05:17:24.802Z,21.23
2019-06-01T05:19:57.284Z,22.02
2019-06-01T05:22:29.245Z,15.10
2019-06-01T05:25:01.007Z,16.90
2019-06-01T05:27:32.971Z,18.02
2019-06-01T05:30:07.421Z,22.45
2019-06-01T05:32:39.262Z,19.40
2019-06-01T05:35:11.797Z,24.60
2019-06-01T05:37:43.708Z,20.82
2019-06-01T05:40:16.662Z,17.05
2019-06-01T05:42:50.102Z,21.68
2019-06-01T05:45:22.995Z,19.07
2019-06-01T05:47:55.058Z,18.27
2019-06-01T05:50:27.328Z,23.18
2019-06-01T05:52:59.394Z,16.25
2019-06-01T05:55:31.884Z,20.35
2019-06-01T05:58:04.044Z,19.10
2019-06-01T06:00:41.395Z,29.63
2019-06-01T06:03:16.197Z,26.25
2019-06-01T06:08:20.055Z,24.27
2019-06-01T06:10:52.171Z,18.87
2019-06-01T06:13:24.445Z,27.80
2019-06-01T06:15:56.819Z,23.57
2019-06-01T06:18:28.889Z,25.50
2019-06-01T06:21:01.063Z,14.60
2019-06-01T06:23:33.338Z,27.42
2019-06-01T06:26:05.718Z,22.32
2019-06-01T06:28:38.087Z,22.20
2019-06-01T06:31:09.955Z,20.23
2019-06-01T06:33:55.423Z,21.75
2019-06-01T06:36:15.933Z,15.80
2019-06-01T06:38:48.095Z,17.45
2019-06-01T06:41:20.483Z,15.55
2019-06-01T06:43:52.857Z,18.12
2019-06-01T06:46:25.331Z,18.17
2019-06-01T06:48:57.395Z,19.73
2019-06-01T06:51:29.775Z,15.03
2019-06-01T06:54:01.842Z,22.30
2019-06-01T06:56:34.014Z,17.85
2019-06-01T06:59:06.416Z,12.68
2019-06-01T07:01:38.773Z,13.22
2019-06-01T07:04:12.990Z,17.35
2019-06-01T07:06:44.644Z,15.60
2019-06-01T07:09:17.875Z,9.95
2019-06-01T07:11:49.707Z,20.15
2019-06-01T07:14:23.362Z,9.20
2019-06-01T07:16:55.379Z,38.48
2019-06-01T07:19:27.945Z,11.68
2019-06-01T07:22:00.235Z,9.68
2019-06-01T07:24:32.416Z,13.18
2019-06-01T07:27:04.679Z,16.45
2019-06-01T07:29:36.840Z,11.90
2019-06-01T07:32:09.212Z,12.35
2019-06-01T07:34:42.763Z,12.95
2019-06-01T07:37:15.082Z,14.85
2019-06-01T07:39:47.254Z,12.68
2019-06-01T07:42:23.024Z,18.20
2019-06-01T07:44:52.925Z,19.00
2019-06-01T07:47:27.212Z,20.57
2019-06-01T07:49:59.352Z,16.65
2019-06-01T07:52:32.234Z,16.80
2019-06-01T07:55:05.570Z,19.02
2019-06-01T07:57:37.460Z,12.88
2019-06-01T08:00:10.774Z,17.05
2019-06-01T08:02:43.133Z,14.25
2019-06-01T08:05:15.403Z,17.32
2019-06-01T08:07:47.781Z,15.72
2019-06-01T08:10:21.338Z,17.15
2019-06-01T08:12:54.275Z,10.23
2019-06-01T08:15:28.040Z,18.05
2019-06-01T08:18:00.251Z,18.00
2019-06-01T08:20:32.296Z,11.08
2019-06-01T08:23:07.240Z,12.40
2019-06-01T08:25:39.735Z,10.25
2019-06-01T08:28:11.828Z,10.68
2019-06-01T08:30:44.383Z,10.10
2019-06-01T08:33:17.287Z,13.50
2019-06-01T08:35:49.648Z,13.80
2019-06-01T08:38:21.505Z,12.15
2019-06-01T08:40:54.874Z,7.30
2019-06-01T08:43:27.610Z,14.03
2019-06-01T08:45:59.849Z,13.53
2019-06-01T08:48:32.071Z,11.85
2019-06-01T08:51:04.191Z,6.65
2019-06-01T08:53:36.463Z,8.65
2019-06-01T08:56:08.529Z,6.17
2019-06-01T08:58:40.592Z,10.68
2019-06-01T09:01:12.861Z,12.88
2019-06-01T09:03:46.758Z,12.35
2019-06-01T09:06:18.733Z,8.07
2019-06-01T09:08:50.910Z,12.98
2019-06-01T09:11:23.192Z,7.70
2019-06-01T09:13:55.554Z,14.58
2019-06-01T09:16:29.674Z,8.08
2019-06-01T09:19:01.947Z,11.53
2019-06-01T09:21:34.011Z,12.70
2019-06-01T09:24:06.282Z,12.78
2019-06-01T09:26:38.664Z,10.23
2019-06-01T09:29:10.859Z,17.92
2019-06-01T09:31:42.880Z,10.78
2019-06-01T09:34:15.147Z,9.58
2019-06-01T09:36:47.208Z,7.37
2019-06-01T09:39:19.167Z,8.85
2019-06-01T09:41:51.344Z,16.05
2019-06-01T09:44:23.850Z,10.98
2019-06-01T09:46:56.079Z,6.00
2019-06-01T09:49:29.163Z,12.40
2019-06-01T09:52:01.436Z,8.33
2019-06-01T09:54:34.697Z,8.33
2019-06-01T09:57:07.726Z,8.73
2019-06-01T09:59:39.692Z,9.68
2019-06-01T10:02:11.545Z,9.00
2019-06-01T10:04:44.060Z,6.72
2019-06-01T10:07:16.706Z,12.90
2019-06-01T10:09:49.686Z,9.53
2019-06-01T10:12:21.884Z,10.93
2019-06-01T10:14:54.246Z,7.60
2019-06-01T10:17:26.999Z,11.78
2019-06-01T10:20:16.097Z,7.47
2019-06-01T10:22:46.297Z,11.30
2019-06-01T10:25:18.450Z,5.67
2019-06-01T10:27:50.838Z,5.40
2019-06-01T10:30:23.308Z,11.33
2019-06-01T10:32:55.672Z,5.90
2019-06-01T10:35:28.151Z,6.50
2019-06-01T10:38:00.223Z,14.50
2019-06-01T10:40:33.373Z,5.28
2019-06-01T10:43:05.898Z,18.00
2019-06-01T10:45:38.055Z,10.23
2019-06-01T10:48:10.520Z,9.95
2019-06-01T10:50:42.696Z,5.78
2019-06-01T10:53:15.071Z,8.13
2019-06-01T10:55:47.545Z,6.35
2019-06-01T10:58:20.013Z,9.05
2019-06-01T11:00:52.368Z,10.50
2019-06-01T11:03:24.786Z,6.90
2019-06-01T11:05:57.162Z,7.92
2019-06-01T11:08:29.093Z,5.12
2019-06-01T11:11:01.274Z,8.70
2019-06-01T11:13:34.905Z,9.73
2019-06-01T11:18:39.631Z,10.85
2019-06-01T11:21:11.764Z,6.53
2019-06-01T11:23:46.489Z,6.28
2019-06-01T11:26:18.147Z,13.18
2019-06-01T11:28:50.804Z,12.78
2019-06-01T11:31:23.199Z,14.95
2019-06-01T11:33:55.988Z,7.20
2019-06-01T11:36:27.961Z,8.53
2019-06-01T11:39:00.156Z,6.08
2019-06-01T11:41:32.294Z,10.15
2019-06-01T11:44:05.302Z,4.53
2019-06-01T11:46:38.866Z,6.42
2019-06-01T11:49:11.033Z,10.65
2019-06-01T11:51:43.375Z,8.50
2019-06-01T11:54:15.381Z,7.92
2019-06-01T11:56:47.339Z,7.42
2019-06-01T11:59:21.319Z,4.83
2019-06-01T12:01:53.412Z,13.43
2019-06-01T12:04:25.788Z,9.08
2019-06-01T12:07:16.253Z,8.93
2019-06-01T12:09:32.165Z,6.70
2019-06-01T12:12:04.536Z,8.68
2019-06-01T12:14:38.335Z,4.50
2019-06-01T12:19:42.719Z,4.10
2019-06-01T12:22:15.162Z,5.92
2019-06-01T12:24:47.486Z,3.83
2019-06-01T12:27:19.598Z,8.80
2019-06-01T12:29:52.625Z,7.55
2019-06-01T12:32:25.278Z,8.95
2019-06-01T12:34:57.229Z,8.60
2019-06-01T12:37:45.346Z,9.50
2019-06-01T12:40:07.455Z,3.87
2019-06-01T12:42:37.325Z,5.90
2019-06-01T12:45:17.381Z,11.68
2019-06-01T12:47:54.131Z,6.90
2019-06-01T12:50:23.353Z,10.28
2019-06-01T12:52:55.623Z,6.28
2019-06-01T12:55:27.794Z,5.95
2019-06-01T12:57:59.649Z,7.28
2019-06-01T13:00:31.541Z,9.20
2019-06-01T13:03:07.794Z,7.53
2019-06-01T13:05:37.493Z,6.15
2019-06-01T13:08:09.464Z,6.95
2019-06-01T13:10:41.523Z,5.58
2019-06-01T13:13:13.589Z,3.22
2019-06-01T13:15:47.262Z,11.22
2019-06-01T13:18:19.276Z,7.00
2019-06-01T13:20:51.712Z,7.70
2019-06-01T13:23:23.906Z,5.62
2019-06-01T13:25:56.380Z,7.67
2019-06-01T13:28:37.662Z,5.62
2019-06-01T13:31:02.067Z,7.05
2019-06-01T13:33:34.002Z,6.12
2019-06-01T13:36:06.313Z,11.85
2019-06-01T13:38:38.658Z,6.03
2019-06-01T13:41:10.810Z,11.50
2019-06-01T13:43:43.686Z,7.12
2019-06-01T13:46:15.765Z,10.45
2019-06-01T13:48:47.929Z,13.13
2019-06-01T13:51:20.099Z,8.00
2019-06-01T13:53:52.944Z,5.33
2019-06-01T13:56:26.071Z,10.50
2019-06-01T13:58:58.333Z,9.68
2019-06-01T14:01:30.401Z,6.37
2019-06-01T14:04:02.567Z,3.52
2019-06-01T14:06:34.839Z,6.87
2019-06-01T14:09:07.516Z,11.93
2019-06-01T14:11:39.893Z,11.97
2019-06-01T14:14:12.359Z,6.60
2019-06-01T14:16:45.467Z,10.48
2019-06-01T14:19:17.741Z,4.30
2019-06-01T14:21:50.464Z,7.17
2019-06-01T14:24:22.802Z,5.08
2019-06-01T14:26:56.210Z,6.17
2019-06-01T14:29:28.238Z,8.93
2019-06-01T14:32:00.502Z,7.10
2019-06-01T14:34:32.675Z,6.28
2019-06-01T14:37:04.947Z,7.53
2019-06-01T14:39:37.219Z,3.15
2019-06-01T14:42:09.380Z,4.67
2019-06-01T14:44:41.439Z,6.97
2019-06-01T14:47:13.612Z,5.30
2019-06-01T14:49:47.229Z,7.65
2019-06-01T14:52:19.375Z,6.35
2019-06-01T14:54:53.699Z,5.03
2019-06-01T14:57:25.961Z,4.75
2019-06-01T14:59:58.232Z,9.30
2019-06-01T15:02:30.399Z,6.45
2019-06-01T15:05:02.981Z,7.75
2019-06-01T15:07:35.342Z,9.95
2019-06-01T15:10:08.554Z,7.45
2019-06-01T15:12:40.811Z,16.35
2019-06-01T15:15:12.812Z,9.50
2019-06-01T15:17:45.343Z,7.05
2019-06-01T15:20:17.542Z,7.92
2019-06-01T15:22:50.030Z,8.53
2019-06-01T15:25:22.054Z,12.68
2019-06-01T15:27:54.732Z,13.48
2019-06-01T15:30:27.007Z,17.27
2019-06-01T15:33:00.516Z,24.87
2019-06-01T15:35:32.671Z,13.45
2019-06-01T15:38:05.147Z,18.45
2019-06-01T15:40:37.520Z,23.22
2019-06-01T15:43:09.901Z,16.55
2019-06-01T15:45:42.376Z,22.40
2019-06-01T15:48:15.571Z,14.93
2019-06-01T15:50:47.838Z,20.55
2019-06-01T15:53:20.406Z,11.88
2019-06-01T15:55:52.678Z,15.10
2019-06-01T15:58:25.140Z,32.13
2019-06-01T16:00:58.593Z,15.45
2019-06-01T16:03:34.211Z,17.62
2019-06-01T16:06:06.156Z,14.95
2019-06-01T16:08:38.423Z,11.97
2019-06-01T16:11:10.581Z,19.48
2019-06-01T16:13:42.859Z,12.23
2019-06-01T16:16:15.123Z,16.05
2019-06-01T16:18:47.189Z,16.15
2019-06-01T16:21:20.155Z,13.83
2019-06-01T16:23:52.341Z,15.88
2019-06-01T16:26:24.541Z,19.07
2019-06-01T16:28:56.889Z,19.42
2019-06-01T16:31:29.467Z,13.90
2019-06-01T16:34:02.905Z,13.03
2019-06-01T16:36:35.222Z,14.15
2019-06-01T16:39:09.674Z,11.73
2019-06-01T16:41:41.721Z,8.60
2019-06-01T16:44:13.667Z,12.80
2019-06-01T16:46:46.038Z,13.22
2019-06-01T16:49:18.324Z,10.63
2019-06-01T16:51:59.029Z,13.25
2019-06-01T16:54:31.348Z,14.38
2019-06-01T16:57:03.637Z,10.75
2019-06-01T16:59:36.098Z,13.60
2019-06-01T17:02:08.269Z,12.40
2019-06-01T17:04:40.761Z,9.88
2019-06-01T17:07:13.107Z,17.02
2019-06-01T17:09:45.482Z,9.80
2019-06-01T17:12:17.553Z,15.03
2019-06-01T17:14:49.918Z,14.13
2019-06-01T17:17:22.515Z,17.30
2019-06-01T17:19:54.546Z,9.63
2019-06-01T17:22:26.624Z,23.25
2019-06-01T17:25:00.018Z,8.85
2019-06-01T17:27:31.786Z,20.72
2019-06-01T17:30:06.980Z,15.45
2019-06-01T17:32:37.957Z,19.50
2019-06-01T17:35:12.284Z,11.25
2019-06-01T17:37:44.549Z,10.72
2019-06-01T17:40:17.123Z,11.93
2019-06-01T17:42:49.396Z,19.02
2019-06-01T17:45:21.803Z,16.95
2019-06-01T17:47:54.144Z,16.00
2019-06-01T17:50:27.228Z,14.85
2019-06-01T17:53:00.559Z,11.75
2019-06-01T17:55:34.620Z,11.75
2019-06-01T17:58:07.935Z,15.88
2019-06-01T18:00:40.213Z,24.65
2019-06-01T18:03:13.796Z,20.10
2019-06-01T18:05:46.459Z,12.80
2019-06-01T18:08:19.263Z,13.53
2019-06-01T18:10:54.668Z,22.73
2019-06-01T18:13:25.497Z,12.47
2019-06-01T18:15:58.262Z,12.75
2019-06-01T18:18:30.390Z,13.72
2019-06-01T18:21:02.658Z,14.75
2019-06-01T18:23:35.029Z,20.57
2019-06-01T18:26:08.952Z,16.70
2019-06-01T18:28:41.203Z,17.13
2019-06-01T18:31:15.329Z,19.20
2019-06-01T18:33:48.623Z,22.90
2019-06-01T18:36:20.578Z,20.55
2019-06-01T18:38:53.052Z,15.55
2019-06-01T18:41:25.867Z,21.35
2019-06-01T18:43:58.306Z,29.48
2019-06-01T18:46:30.639Z,34.63
2019-06-01T18:49:03.781Z,24.65
2019-06-01T18:51:35.877Z,18.62
2019-06-01T18:54:08.713Z,15.10
2019-06-01T18:56:40.992Z,19.27
2019-06-01T18:59:14.461Z,21.35
2019-06-01T19:01:46.671Z,15.60
2019-06-01T19:04:19.128Z,17.20
2019-06-01T19:06:51.299Z,22.00
2019-06-01T19:09:23.670Z,18.35
2019-06-01T19:11:59.030Z,18.17
2019-06-01T19:14:31.382Z,22.30
2019-06-01T19:17:03.563Z,14.50
2019-06-01T19:19:36.376Z,16.90
2019-06-01T19:22:09.134Z,12.58
2019-06-01T19:24:41.397Z,19.77
2019-06-01T19:27:14.947Z,24.60
2019-06-01T19:29:47.449Z,22.50
2019-06-01T19:32:21.352Z,25.50
2019-06-01T19:34:53.747Z,18.07
2019-06-01T19:37:25.999Z,25.02
2019-06-01T19:39:58.368Z,19.57
2019-06-01T19:42:30.784Z,18.25
2019-06-01T19:45:14.241Z,26.65
2019-06-01T19:47:40.509Z,22.70
2019-06-01T19:50:12.883Z,24.57
2019-06-01T19:52:45.359Z,25.75
2019-06-01T19:55:19.788Z,21.20
2019-06-01T19:57:51.837Z,43.05
2019-06-01T20:00:24.312Z,33.45
2019-06-01T20:02:57.020Z,48.58
2019-06-01T20:05:29.482Z,30.10
2019-06-01T20:08:01.643Z,32.60
2019-06-01T20:10:34.303Z,44.77
2019-06-01T20:13:06.798Z,43.35
2019-06-01T20:15:39.382Z,50.70
2019-06-01T20:18:12.678Z,41.85
2019-06-01T20:20:44.919Z,46.80
2019-06-01T20:23:19.525Z,16.65
2019-06-01T20:25:51.990Z,29.48
2019-06-01T20:28:24.220Z,19.75
2019-06-01T20:30:56.736Z,12.88
2019-06-01T20:33:28.643Z,8.10
2019-06-01T20:36:00.605Z,12.03
2019-06-01T20:38:33.297Z,14.73
2019-06-01T20:41:05.449Z,12.40
2019-06-01T20:43:37.772Z,13.05
2019-06-01T20:46:10.237Z,16.93
2019-06-01T20:48:42.782Z,14.95
2019-06-01T20:51:15.153Z,17.52
2019-06-01T20:53:47.636Z,19.02
2019-06-01T20:56:21.452Z,22.73
2019-06-01T20:58:53.793Z,23.07
2019-06-01T21:01:25.859Z,18.60
2019-06-01T21:03:58.134Z,17.52
2019-06-01T21:06:30.420Z,15.95
2019-06-01T21:09:02.814Z,9.33
2019-06-01T21:11:36.707Z,13.07
2019-06-01T21:14:08.950Z,11.50
2019-06-01T21:16:41.027Z,21.37
2019-06-01T21:19:14.140Z,25.12
2019-06-01T21:21:46.679Z,28.25
2019-06-01T21:24:18.857Z,27.70
2019-06-01T21:26:51.116Z,28.57
2019-06-01T21:29:23.319Z,34.08
2019-06-01T21:31:55.560Z,26.48
2019-06-01T21:34:27.827Z,25.70
2019-06-01T21:37:00.084Z,17.32
2019-06-01T21:39:33.389Z,14.63
2019-06-01T21:42:05.913Z,13.03
2019-06-01T21:44:37.929Z,11.08
2019-06-01T21:47:10.197Z,13.18
2019-06-01T21:49:42.671Z,8.43
2019-06-01T21:52:15.809Z,11.38
2019-06-01T21:54:48.468Z,12.35
2019-06-01T21:57:20.814Z,13.62
2019-06-01T21:59:53.460Z,14.60
2019-06-01T22:02:25.739Z,12.18
2019-06-01T22:04:58.159Z,13.72
2019-06-01T22:07:30.411Z,13.32
2019-06-01T22:10:02.984Z,10.28
2019-06-01T22:12:35.159Z,8.55
2019-06-01T22:15:07.495Z,9.43
2019-06-01T22:17:39.590Z,9.55
2019-06-01T22:20:12.068Z,8.58
2019-06-01T22:22:44.831Z,7.92
2019-06-01T22:25:17.788Z,7.25
2019-06-01T22:27:50.226Z,6.20
2019-06-01T22:30:22.693Z,9.90
2019-06-01T22:32:54.665Z,5.83
2019-06-01T22:35:26.836Z,5.67
2019-06-01T22:37:59.658Z,7.83
2019-06-01T22:40:31.673Z,6.20
2019-06-01T22:43:04.355Z,10.60
2019-06-01T22:45:36.448Z,6.97
2019-06-01T22:48:08.696Z,8.23
2019-06-01T22:50:41.073Z,10.32
2019-06-01T22:53:13.190Z,6.62
2019-06-01T22:55:45.520Z,8.30
2019-06-01T22:58:17.394Z,8.98
2019-06-01T23:00:49.438Z,8.78
2019-06-01T23:03:21.847Z,10.32
2019-06-01T23:05:53.987Z,6.30
2019-06-01T23:08:27.316Z,9.35
2019-06-01T23:10:59.346Z,12.00
2019-06-01T23:13:32.446Z,7.15
2019-06-01T23:16:04.615Z,10.15
2019-06-01T23:18:36.989Z,8.98
2019-06-01T23:21:08.971Z,8.38
2019-06-01T23:23:41.015Z,6.90
2019-06-01T23:26:13.306Z,5.03
2019-06-01T23:28:45.252Z,11.80
2019-06-01T23:31:17.222Z,14.28
2019-06-01T23:33:49.798Z,8.75
2019-06-01T23:36:22.493Z,8.63
2019-06-01T23:38:54.445Z,5.25
2019-06-01T23:41:26.667Z,6.45
2019-06-01T23:44:11.209Z,9.05
2019-06-01T23:46:33.471Z,5.00
2019-06-01T23:49:05.489Z,10.00
2019-06-01T23:51:37.868Z,10.13
2019-06-01T23:54:10.444Z,5.83
2019-06-01T23:56:42.619Z,4.40
2019-06-01T23:59:14.520Z,8.00
